sensor_id;sensor_type;location;lat;lon;timestamp;temperature;humidity
23089;DHT22;11713;48.506;8.966;2023-02-18T00:01:26;11.30;99.90
23089;DHT22;11713;48.506;8.966;2023-02-18T00:03:55;11.30;99.90
23089;DHT22;11713;48.506;8.966;2023-02-18T00:06:25;11.30;99.90
23089;DHT22;11713;48.506;8.966;2023-02-18T00:08:51;11.30;99.90
23089;DHT22;11713;48.506;8.966;2023-02-18T00:11:19;11.20;99.90
23089;DHT22;11713;48.506;8.966;2023-02-18T00:13:59;11.20;99.90
23089;DHT22;11713;48.506;8.966;2023-02-18T00:16:27;11.20;99.90
23089;DHT22;11713;48.506;8.966;2023-02-18T00:18:58;11.20;99.90
23089;DHT22;11713;48.506;8.966;2023-02-18T00:21:25;11.20;99.90
23089;DHT22;11713;48.506;8.966;2023-02-18T00:23:53;11.20;99.90
23089;DHT22;11713;48.506;8.966;2023-02-18T00:26:20;11.20;99.90
23089;DHT22;11713;48.506;8.966;2023-02-18T00:28:48;11.20;99.90
23089;DHT22;11713;48.506;8.966;2023-02-18T00:31:19;11.20;99.90
23089;DHT22;11713;48.506;8.966;2023-02-18T00:33:48;11.20;99.90
23089;DHT22;11713;48.506;8.966;2023-02-18T00:36:17;11.10;99.90
23089;DHT22;11713;48.506;8.966;2023-02-18T00:38:45;11.20;99.90
23089;DHT22;11713;48.506;8.966;2023-02-18T00:41:14;11.20;99.90
23089;DHT22;11713;48.506;8.966;2023-02-18T00:43:40;11.20;99.90
23089;DHT22;11713;48.506;8.966;2023-02-18T00:46:07;11.20;99.90
23089;DHT22;11713;48.506;8.966;2023-02-18T00:48:34;11.20;99.90
23089;DHT22;11713;48.506;8.966;2023-02-18T00:51:02;11.20;99.90
23089;DHT22;11713;48.506;8.966;2023-02-18T00:53:29;11.20;99.90
23089;DHT22;11713;48.506;8.966;2023-02-18T00:55:55;11.20;99.90
23089;DHT22;11713;48.506;8.966;2023-02-18T00:58:22;11.20;99.90
23089;DHT22;11713;48.506;8.966;2023-02-18T01:00:48;11.20;99.90
23089;DHT22;11713;48.506;8.966;2023-02-18T01:03:14;11.20;99.90
23089;DHT22;11713;48.506;8.966;2023-02-18T01:05:40;11.10;99.90
23089;DHT22;11713;48.506;8.966;2023-02-18T01:08:07;11.10;99.90
23089;DHT22;11713;48.506;8.966;2023-02-18T01:10:34;11.00;99.90
23089;DHT22;11713;48.506;8.966;2023-02-18T01:13:03;11.00;99.90
23089;DHT22;11713;48.506;8.966;2023-02-18T01:15:30;11.00;99.90
23089;DHT22;11713;48.506;8.966;2023-02-18T01:17:56;11.00;99.90
23089;DHT22;11713;48.506;8.966;2023-02-18T01:20:21;10.90;99.90
23089;DHT22;11713;48.506;8.966;2023-02-18T01:22:47;10.90;99.90
23089;DHT22;11713;48.506;8.966;2023-02-18T01:25:13;10.90;99.90
23089;DHT22;11713;48.506;8.966;2023-02-18T01:27:39;10.90;99.90
23089;DHT22;11713;48.506;8.966;2023-02-18T01:30:08;10.90;99.90
23089;DHT22;11713;48.506;8.966;2023-02-18T01:32:34;10.90;99.90
23089;DHT22;11713;48.506;8.966;2023-02-18T01:35:02;10.90;99.90
23089;DHT22;11713;48.506;8.966;2023-02-18T01:37:28;10.90;99.90
23089;DHT22;11713;48.506;8.966;2023-02-18T01:39:54;10.90;99.90
23089;DHT22;11713;48.506;8.966;2023-02-18T01:42:24;10.90;99.90
23089;DHT22;11713;48.506;8.966;2023-02-18T01:44:50;10.90;99.90
23089;DHT22;11713;48.506;8.966;2023-02-18T01:47:17;10.80;99.90
23089;DHT22;11713;48.506;8.966;2023-02-18T01:49:46;10.80;99.90
23089;DHT22;11713;48.506;8.966;2023-02-18T01:52:18;10.80;99.90
23089;DHT22;11713;48.506;8.966;2023-02-18T01:54:48;10.80;99.90
23089;DHT22;11713;48.506;8.966;2023-02-18T01:57:19;10.80;99.90
23089;DHT22;11713;48.506;8.966;2023-02-18T02:00:10;10.70;99.90
23089;DHT22;11713;48.506;8.966;2023-02-18T02:02:47;10.70;99.90
23089;DHT22;11713;48.506;8.966;2023-02-18T02:05:14;10.70;99.90
23089;DHT22;11713;48.506;8.966;2023-02-18T02:07:41;10.70;99.90
23089;DHT22;11713;48.506;8.966;2023-02-18T02:10:08;10.60;99.90
23089;DHT22;11713;48.506;8.966;2023-02-18T02:13:02;10.60;99.90
23089;DHT22;11713;48.506;8.966;2023-02-18T02:23:48;10.50;99.90
23089;DHT22;11713;48.506;8.966;2023-02-18T02:29:32;10.40;99.90
23089;DHT22;11713;48.506;8.966;2023-02-18T02:35:13;10.40;99.90
23089;DHT22;11713;48.506;8.966;2023-02-18T02:37:47;10.40;99.90
23089;DHT22;11713;48.506;8.966;2023-02-18T02:51:12;10.40;99.90
23089;DHT22;11713;48.506;8.966;2023-02-18T02:53:42;10.40;99.90
23089;DHT22;11713;48.506;8.966;2023-02-18T02:56:23;10.40;99.90
23089;DHT22;11713;48.506;8.966;2023-02-18T02:59:00;10.40;99.90
23089;DHT22;11713;48.506;8.966;2023-02-18T03:18:31;10.40;99.90
23089;DHT22;11713;48.506;8.966;2023-02-18T03:21:11;10.40;99.90
23089;DHT22;11713;48.506;8.966;2023-02-18T03:23:45;10.40;99.90
23089;DHT22;11713;48.506;8.966;2023-02-18T03:26:13;10.40;99.90
23089;DHT22;11713;48.506;8.966;2023-02-18T03:28:39;10.40;99.90
23089;DHT22;11713;48.506;8.966;2023-02-18T03:31:12;10.40;99.90
23089;DHT22;11713;48.506;8.966;2023-02-18T03:33:45;10.40;99.90
23089;DHT22;11713;48.506;8.966;2023-02-18T03:36:12;10.30;99.90
23089;DHT22;11713;48.506;8.966;2023-02-18T03:39:02;10.30;99.90
23089;DHT22;11713;48.506;8.966;2023-02-18T03:41:29;10.30;99.90
23089;DHT22;11713;48.506;8.966;2023-02-18T03:44:06;10.20;99.90
23089;DHT22;11713;48.506;8.966;2023-02-18T03:46:33;10.10;99.90
23089;DHT22;11713;48.506;8.966;2023-02-18T03:49:00;10.10;99.90
23089;DHT22;11713;48.506;8.966;2023-02-18T03:51:26;10.10;99.90
23089;DHT22;11713;48.506;8.966;2023-02-18T03:53:52;10.00;99.90
23089;DHT22;11713;48.506;8.966;2023-02-18T03:56:18;10.00;99.90
23089;DHT22;11713;48.506;8.966;2023-02-18T03:58:44;10.00;99.90
23089;DHT22;11713;48.506;8.966;2023-02-18T04:01:10;10.10;99.90
23089;DHT22;11713;48.506;8.966;2023-02-18T04:03:36;10.00;99.90
23089;DHT22;11713;48.506;8.966;2023-02-18T04:06:02;10.00;99.90
23089;DHT22;11713;48.506;8.966;2023-02-18T04:08:28;10.00;99.90
23089;DHT22;11713;48.506;8.966;2023-02-18T04:10:53;10.00;99.90
23089;DHT22;11713;48.506;8.966;2023-02-18T04:13:20;10.00;99.90
23089;DHT22;11713;48.506;8.966;2023-02-18T04:15:48;10.00;99.90
23089;DHT22;11713;48.506;8.966;2023-02-18T04:18:14;10.00;99.90
23089;DHT22;11713;48.506;8.966;2023-02-18T04:20:40;10.00;99.90
23089;DHT22;11713;48.506;8.966;2023-02-18T04:23:06;9.90;99.90
23089;DHT22;11713;48.506;8.966;2023-02-18T04:25:32;10.00;99.90
23089;DHT22;11713;48.506;8.966;2023-02-18T04:27:58;9.90;99.90
23089;DHT22;11713;48.506;8.966;2023-02-18T04:30:51;9.90;99.90
23089;DHT22;11713;48.506;8.966;2023-02-18T04:33:17;9.90;99.90
23089;DHT22;11713;48.506;8.966;2023-02-18T04:35:43;9.80;99.90
23089;DHT22;11713;48.506;8.966;2023-02-18T04:38:10;9.80;99.90
23089;DHT22;11713;48.506;8.966;2023-02-18T04:40:36;9.80;99.90
23089;DHT22;11713;48.506;8.966;2023-02-18T04:43:02;9.80;99.90
23089;DHT22;11713;48.506;8.966;2023-02-18T04:45:28;9.80;99.90
23089;DHT22;11713;48.506;8.966;2023-02-18T04:47:54;9.80;99.90
23089;DHT22;11713;48.506;8.966;2023-02-18T04:50:20;9.70;99.90
23089;DHT22;11713;48.506;8.966;2023-02-18T04:52:46;9.70;99.90
23089;DHT22;11713;48.506;8.966;2023-02-18T04:55:12;9.70;99.90
23089;DHT22;11713;48.506;8.966;2023-02-18T04:57:38;9.70;99.90
23089;DHT22;11713;48.506;8.966;2023-02-18T05:00:06;9.60;99.90
23089;DHT22;11713;48.506;8.966;2023-02-18T05:02:32;9.60;99.90
23089;DHT22;11713;48.506;8.966;2023-02-18T05:04:58;9.50;99.90
23089;DHT22;11713;48.506;8.966;2023-02-18T05:07:24;9.50;99.90
23089;DHT22;11713;48.506;8.966;2023-02-18T05:09:50;9.50;99.90
23089;DHT22;11713;48.506;8.966;2023-02-18T05:12:15;9.50;99.90
23089;DHT22;11713;48.506;8.966;2023-02-18T05:14:41;9.50;99.90
23089;DHT22;11713;48.506;8.966;2023-02-18T05:17:07;9.50;99.90
23089;DHT22;11713;48.506;8.966;2023-02-18T05:19:33;9.50;99.90
23089;DHT22;11713;48.506;8.966;2023-02-18T05:21:59;9.50;99.90
23089;DHT22;11713;48.506;8.966;2023-02-18T05:24:25;9.50;99.90
23089;DHT22;11713;48.506;8.966;2023-02-18T05:26:50;9.50;99.90
23089;DHT22;11713;48.506;8.966;2023-02-18T05:29:16;9.50;99.90
23089;DHT22;11713;48.506;8.966;2023-02-18T05:31:42;9.50;99.90
23089;DHT22;11713;48.506;8.966;2023-02-18T05:34:08;9.50;99.90
23089;DHT22;11713;48.506;8.966;2023-02-18T05:36:33;9.50;99.90
23089;DHT22;11713;48.506;8.966;2023-02-18T05:38:59;9.60;99.90
23089;DHT22;11713;48.506;8.966;2023-02-18T05:41:25;9.60;99.90
23089;DHT22;11713;48.506;8.966;2023-02-18T05:44:09;9.60;99.90
23089;DHT22;11713;48.506;8.966;2023-02-18T05:46:53;9.60;99.90
23089;DHT22;11713;48.506;8.966;2023-02-18T05:49:19;9.60;99.90
23089;DHT22;11713;48.506;8.966;2023-02-18T05:51:45;9.50;99.90
23089;DHT22;11713;48.506;8.966;2023-02-18T05:54:11;9.50;99.90
23089;DHT22;11713;48.506;8.966;2023-02-18T05:56:37;9.50;99.90
23089;DHT22;11713;48.506;8.966;2023-02-18T05:59:03;9.40;99.90
23089;DHT22;11713;48.506;8.966;2023-02-18T06:01:29;9.30;99.90
23089;DHT22;11713;48.506;8.966;2023-02-18T06:03:54;9.30;99.90
23089;DHT22;11713;48.506;8.966;2023-02-18T06:06:20;9.30;99.90
23089;DHT22;11713;48.506;8.966;2023-02-18T06:08:46;9.30;99.90
23089;DHT22;11713;48.506;8.966;2023-02-18T06:11:12;9.20;99.90
23089;DHT22;11713;48.506;8.966;2023-02-18T06:13:37;9.30;99.90
23089;DHT22;11713;48.506;8.966;2023-02-18T06:16:03;9.20;99.90
23089;DHT22;11713;48.506;8.966;2023-02-18T06:18:29;9.30;99.90
23089;DHT22;11713;48.506;8.966;2023-02-18T06:20:55;9.30;99.90
23089;DHT22;11713;48.506;8.966;2023-02-18T06:23:21;9.30;99.90
23089;DHT22;11713;48.506;8.966;2023-02-18T06:25:50;9.30;99.90
23089;DHT22;11713;48.506;8.966;2023-02-18T06:28:16;9.40;99.90
23089;DHT22;11713;48.506;8.966;2023-02-18T06:30:44;9.40;99.90
23089;DHT22;11713;48.506;8.966;2023-02-18T06:33:10;9.40;99.90
23089;DHT22;11713;48.506;8.966;2023-02-18T06:35:35;9.40;99.90
23089;DHT22;11713;48.506;8.966;2023-02-18T06:38:01;9.50;99.90
23089;DHT22;11713;48.506;8.966;2023-02-18T06:40:27;9.50;99.90
23089;DHT22;11713;48.506;8.966;2023-02-18T06:42:53;9.50;99.90
23089;DHT22;11713;48.506;8.966;2023-02-18T06:45:19;9.50;99.90
23089;DHT22;11713;48.506;8.966;2023-02-18T06:47:46;9.60;99.90
23089;DHT22;11713;48.506;8.966;2023-02-18T06:50:12;9.70;99.90
23089;DHT22;11713;48.506;8.966;2023-02-18T06:52:38;9.70;99.90
23089;DHT22;11713;48.506;8.966;2023-02-18T06:55:07;9.80;99.90
23089;DHT22;11713;48.506;8.966;2023-02-18T06:57:37;9.80;99.90
23089;DHT22;11713;48.506;8.966;2023-02-18T07:00:05;9.90;99.90
23089;DHT22;11713;48.506;8.966;2023-02-18T07:02:31;9.80;99.90
23089;DHT22;11713;48.506;8.966;2023-02-18T07:04:56;9.90;99.90
23089;DHT22;11713;48.506;8.966;2023-02-18T07:07:22;10.00;99.90
23089;DHT22;11713;48.506;8.966;2023-02-18T07:09:50;10.00;99.90
23089;DHT22;11713;48.506;8.966;2023-02-18T07:12:16;10.10;99.90
23089;DHT22;11713;48.506;8.966;2023-02-18T07:14:42;10.10;99.90
23089;DHT22;11713;48.506;8.966;2023-02-18T07:17:09;10.20;99.90
23089;DHT22;11713;48.506;8.966;2023-02-18T07:19:36;10.20;99.90
23089;DHT22;11713;48.506;8.966;2023-02-18T07:24:31;10.30;99.90
23089;DHT22;11713;48.506;8.966;2023-02-18T07:26:57;10.30;99.90
23089;DHT22;11713;48.506;8.966;2023-02-18T07:29:22;10.30;99.90
23089;DHT22;11713;48.506;8.966;2023-02-18T07:31:48;10.40;99.90
23089;DHT22;11713;48.506;8.966;2023-02-18T07:34:14;10.40;99.90
23089;DHT22;11713;48.506;8.966;2023-02-18T07:36:40;10.40;99.90
23089;DHT22;11713;48.506;8.966;2023-02-18T07:39:06;10.40;99.90
23089;DHT22;11713;48.506;8.966;2023-02-18T07:41:32;10.50;99.90
23089;DHT22;11713;48.506;8.966;2023-02-18T07:43:58;10.50;99.90
23089;DHT22;11713;48.506;8.966;2023-02-18T07:46:24;10.50;99.90
23089;DHT22;11713;48.506;8.966;2023-02-18T07:48:50;10.60;99.90
23089;DHT22;11713;48.506;8.966;2023-02-18T07:51:16;10.60;99.90
23089;DHT22;11713;48.506;8.966;2023-02-18T07:53:42;10.70;99.90
23089;DHT22;11713;48.506;8.966;2023-02-18T07:56:08;10.80;99.90
23089;DHT22;11713;48.506;8.966;2023-02-18T07:58:36;10.80;99.90
23089;DHT22;11713;48.506;8.966;2023-02-18T08:01:20;10.90;99.90
23089;DHT22;11713;48.506;8.966;2023-02-18T08:03:46;10.90;99.90
23089;DHT22;11713;48.506;8.966;2023-02-18T08:06:21;11.00;99.90
23089;DHT22;11713;48.506;8.966;2023-02-18T08:08:49;11.10;99.90
23089;DHT22;11713;48.506;8.966;2023-02-18T08:11:15;11.10;99.90
23089;DHT22;11713;48.506;8.966;2023-02-18T08:13:41;11.10;99.90
23089;DHT22;11713;48.506;8.966;2023-02-18T08:16:07;11.20;99.90
23089;DHT22;11713;48.506;8.966;2023-02-18T08:18:33;11.20;99.90
23089;DHT22;11713;48.506;8.966;2023-02-18T08:20:59;11.20;99.90
23089;DHT22;11713;48.506;8.966;2023-02-18T08:23:25;11.30;99.90
23089;DHT22;11713;48.506;8.966;2023-02-18T08:25:53;11.30;99.90
23089;DHT22;11713;48.506;8.966;2023-02-18T08:28:21;11.30;99.90
23089;DHT22;11713;48.506;8.966;2023-02-18T08:30:49;11.30;99.90
23089;DHT22;11713;48.506;8.966;2023-02-18T08:33:16;11.30;99.90
23089;DHT22;11713;48.506;8.966;2023-02-18T08:35:42;11.40;99.90
23089;DHT22;11713;48.506;8.966;2023-02-18T08:38:08;11.40;99.90
23089;DHT22;11713;48.506;8.966;2023-02-18T08:40:34;11.40;99.90
23089;DHT22;11713;48.506;8.966;2023-02-18T08:43:00;11.50;99.90
23089;DHT22;11713;48.506;8.966;2023-02-18T08:45:27;11.50;99.90
23089;DHT22;11713;48.506;8.966;2023-02-18T08:47:52;11.50;99.90
23089;DHT22;11713;48.506;8.966;2023-02-18T08:50:18;11.60;99.90
23089;DHT22;11713;48.506;8.966;2023-02-18T08:52:46;11.60;99.90
23089;DHT22;11713;48.506;8.966;2023-02-18T08:55:12;11.70;99.90
23089;DHT22;11713;48.506;8.966;2023-02-18T08:57:38;11.70;99.90
23089;DHT22;11713;48.506;8.966;2023-02-18T09:00:05;11.70;99.90
23089;DHT22;11713;48.506;8.966;2023-02-18T09:02:31;11.80;99.90
23089;DHT22;11713;48.506;8.966;2023-02-18T09:04:57;11.80;99.90
23089;DHT22;11713;48.506;8.966;2023-02-18T09:07:23;11.80;99.90
23089;DHT22;11713;48.506;8.966;2023-02-18T09:09:49;11.80;99.90
23089;DHT22;11713;48.506;8.966;2023-02-18T09:12:14;11.80;99.90
23089;DHT22;11713;48.506;8.966;2023-02-18T09:14:40;11.90;99.90
23089;DHT22;11713;48.506;8.966;2023-02-18T09:17:06;11.90;99.90
23089;DHT22;11713;48.506;8.966;2023-02-18T09:19:32;11.90;99.90
23089;DHT22;11713;48.506;8.966;2023-02-18T09:21:57;11.90;99.90
23089;DHT22;11713;48.506;8.966;2023-02-18T09:24:23;12.00;99.90
23089;DHT22;11713;48.506;8.966;2023-02-18T09:26:56;12.00;99.90
23089;DHT22;11713;48.506;8.966;2023-02-18T09:29:29;12.00;99.90
23089;DHT22;11713;48.506;8.966;2023-02-18T09:31:54;12.10;99.90
23089;DHT22;11713;48.506;8.966;2023-02-18T09:34:24;12.10;99.90
23089;DHT22;11713;48.506;8.966;2023-02-18T09:36:49;12.20;99.90
23089;DHT22;11713;48.506;8.966;2023-02-18T09:39:15;12.30;99.90
23089;DHT22;11713;48.506;8.966;2023-02-18T09:41:51;12.30;99.90
23089;DHT22;11713;48.506;8.966;2023-02-18T09:47:12;12.50;99.90
23089;DHT22;11713;48.506;8.966;2023-02-18T09:49:42;12.50;99.90
23089;DHT22;11713;48.506;8.966;2023-02-18T09:52:19;12.50;99.90
23089;DHT22;11713;48.506;8.966;2023-02-18T09:54:47;12.50;99.90
23089;DHT22;11713;48.506;8.966;2023-02-18T09:59:56;12.60;99.90
23089;DHT22;11713;48.506;8.966;2023-02-18T10:02:24;12.70;99.90
23089;DHT22;11713;48.506;8.966;2023-02-18T10:04:51;12.70;99.90
23089;DHT22;11713;48.506;8.966;2023-02-18T10:07:27;12.80;99.90
23089;DHT22;11713;48.506;8.966;2023-02-18T10:09:56;12.90;99.90
23089;DHT22;11713;48.506;8.966;2023-02-18T10:12:24;13.00;99.90
23089;DHT22;11713;48.506;8.966;2023-02-18T10:14:56;13.10;99.90
23089;DHT22;11713;48.506;8.966;2023-02-18T10:17:25;13.10;99.90
23089;DHT22;11713;48.506;8.966;2023-02-18T10:19:53;13.20;99.90
23089;DHT22;11713;48.506;8.966;2023-02-18T10:22:21;13.30;99.90
23089;DHT22;11713;48.506;8.966;2023-02-18T10:25:03;13.20;99.90
23089;DHT22;11713;48.506;8.966;2023-02-18T10:27:36;13.20;99.90
23089;DHT22;11713;48.506;8.966;2023-02-18T10:30:29;13.10;99.90
23089;DHT22;11713;48.506;8.966;2023-02-18T10:36:26;13.00;99.90
23089;DHT22;11713;48.506;8.966;2023-02-18T10:39:27;13.00;99.90
23089;DHT22;11713;48.506;8.966;2023-02-18T10:52:59;12.80;99.90
23089;DHT22;11713;48.506;8.966;2023-02-18T10:55:41;12.70;99.90
23089;DHT22;11713;48.506;8.966;2023-02-18T11:00:56;12.70;99.90
23089;DHT22;11713;48.506;8.966;2023-02-18T11:03:35;12.70;99.90
23089;DHT22;11713;48.506;8.966;2023-02-18T11:06:03;12.70;99.90
23089;DHT22;11713;48.506;8.966;2023-02-18T11:08:37;12.70;99.90
23089;DHT22;11713;48.506;8.966;2023-02-18T11:11:16;12.70;99.90
23089;DHT22;11713;48.506;8.966;2023-02-18T11:13:54;12.70;99.90
23089;DHT22;11713;48.506;8.966;2023-02-18T11:16:22;12.70;99.90
23089;DHT22;11713;48.506;8.966;2023-02-18T11:18:48;12.70;99.90
23089;DHT22;11713;48.506;8.966;2023-02-18T11:21:28;12.70;99.90
23089;DHT22;11713;48.506;8.966;2023-02-18T11:23:55;12.70;99.90
23089;DHT22;11713;48.506;8.966;2023-02-18T11:26:31;12.70;99.90
23089;DHT22;11713;48.506;8.966;2023-02-18T11:29:22;12.80;99.90
23089;DHT22;11713;48.506;8.966;2023-02-18T11:31:48;12.80;99.90
23089;DHT22;11713;48.506;8.966;2023-02-18T11:34:18;12.80;99.90
23089;DHT22;11713;48.506;8.966;2023-02-18T11:36:45;12.80;99.90
23089;DHT22;11713;48.506;8.966;2023-02-18T11:39:26;12.80;99.90
23089;DHT22;11713;48.506;8.966;2023-02-18T11:41:53;12.80;99.90
23089;DHT22;11713;48.506;8.966;2023-02-18T11:49:24;12.70;99.90
23089;DHT22;11713;48.506;8.966;2023-02-18T11:51:51;12.70;99.90
23089;DHT22;11713;48.506;8.966;2023-02-18T11:54:23;12.70;99.90
23089;DHT22;11713;48.506;8.966;2023-02-18T11:57:02;12.70;99.90
23089;DHT22;11713;48.506;8.966;2023-02-18T11:59:32;12.70;99.90
23089;DHT22;11713;48.506;8.966;2023-02-18T12:07:24;12.70;99.90
23089;DHT22;11713;48.506;8.966;2023-02-18T12:13:14;12.70;99.90
23089;DHT22;11713;48.506;8.966;2023-02-18T12:21:22;12.90;99.90
23089;DHT22;11713;48.506;8.966;2023-02-18T12:34:56;13.00;99.90
23089;DHT22;11713;48.506;8.966;2023-02-18T12:37:44;13.10;99.90
23089;DHT22;11713;48.506;8.966;2023-02-18T12:58:20;13.20;99.90
23089;DHT22;11713;48.506;8.966;2023-02-18T13:17:29;13.30;99.90
23089;DHT22;11713;48.506;8.966;2023-02-18T13:20:05;13.40;99.90
23089;DHT22;11713;48.506;8.966;2023-02-18T13:22:32;13.50;99.90
23089;DHT22;11713;48.506;8.966;2023-02-18T13:24:58;13.40;99.90
23089;DHT22;11713;48.506;8.966;2023-02-18T13:36:03;13.60;99.90
23089;DHT22;11713;48.506;8.966;2023-02-18T13:39:03;13.60;99.90
23089;DHT22;11713;48.506;8.966;2023-02-18T13:41:36;13.70;99.90
23089;DHT22;11713;48.506;8.966;2023-02-18T13:44:07;13.80;99.90
23089;DHT22;11713;48.506;8.966;2023-02-18T13:46:50;13.80;99.90
23089;DHT22;11713;48.506;8.966;2023-02-18T13:49:20;13.80;99.90
23089;DHT22;11713;48.506;8.966;2023-02-18T13:51:49;13.90;99.90
23089;DHT22;11713;48.506;8.966;2023-02-18T13:54:28;13.90;99.90
23089;DHT22;11713;48.506;8.966;2023-02-18T13:57:01;14.00;99.90
23089;DHT22;11713;48.506;8.966;2023-02-18T14:09:58;14.20;99.90
23089;DHT22;11713;48.506;8.966;2023-02-18T14:25:52;14.50;99.90
23089;DHT22;11713;48.506;8.966;2023-02-18T14:33:31;14.80;99.90
23089;DHT22;11713;48.506;8.966;2023-02-18T14:44:32;14.90;99.90
23089;DHT22;11713;48.506;8.966;2023-02-18T14:47:54;14.80;99.90
23089;DHT22;11713;48.506;8.966;2023-02-18T14:50:14;14.80;99.90
23089;DHT22;11713;48.506;8.966;2023-02-18T14:55:29;14.90;99.90
23089;DHT22;11713;48.506;8.966;2023-02-18T15:00:52;15.00;99.90
23089;DHT22;11713;48.506;8.966;2023-02-18T15:03:19;15.00;99.90
23089;DHT22;11713;48.506;8.966;2023-02-18T15:05:49;15.00;99.90
23089;DHT22;11713;48.506;8.966;2023-02-18T15:08:22;15.00;99.90
23089;DHT22;11713;48.506;8.966;2023-02-18T15:10:51;15.00;99.90
23089;DHT22;11713;48.506;8.966;2023-02-18T15:13:41;15.10;99.90
23089;DHT22;11713;48.506;8.966;2023-02-18T15:16:19;15.20;99.90
23089;DHT22;11713;48.506;8.966;2023-02-18T15:18:55;15.10;99.90
23089;DHT22;11713;48.506;8.966;2023-02-18T15:21:41;15.00;99.90
23089;DHT22;11713;48.506;8.966;2023-02-18T15:24:15;15.10;99.90
23089;DHT22;11713;48.506;8.966;2023-02-18T15:26:45;15.10;99.90
23089;DHT22;11713;48.506;8.966;2023-02-18T15:29:19;15.00;99.90
23089;DHT22;11713;48.506;8.966;2023-02-18T15:31:46;15.00;99.90
23089;DHT22;11713;48.506;8.966;2023-02-18T15:34:36;14.80;99.90
23089;DHT22;11713;48.506;8.966;2023-02-18T15:37:05;14.70;99.90
23089;DHT22;11713;48.506;8.966;2023-02-18T15:39:31;14.60;99.90
23089;DHT22;11713;48.506;8.966;2023-02-18T15:42:12;14.60;99.90
23089;DHT22;11713;48.506;8.966;2023-02-18T15:44:47;14.50;99.90
23089;DHT22;11713;48.506;8.966;2023-02-18T15:47:15;14.50;99.90
23089;DHT22;11713;48.506;8.966;2023-02-18T15:49:46;14.40;99.90
23089;DHT22;11713;48.506;8.966;2023-02-18T15:52:13;14.40;99.90
23089;DHT22;11713;48.506;8.966;2023-02-18T15:54:40;14.40;99.90
23089;DHT22;11713;48.506;8.966;2023-02-18T15:57:11;14.20;99.90
23089;DHT22;11713;48.506;8.966;2023-02-18T15:59:44;14.20;99.90
23089;DHT22;11713;48.506;8.966;2023-02-18T16:02:19;14.20;99.90
23089;DHT22;11713;48.506;8.966;2023-02-18T16:04:58;14.20;99.90
23089;DHT22;11713;48.506;8.966;2023-02-18T16:07:49;14.20;99.90
23089;DHT22;11713;48.506;8.966;2023-02-18T16:10:21;14.10;99.90
23089;DHT22;11713;48.506;8.966;2023-02-18T16:12:53;14.00;99.90
23089;DHT22;11713;48.506;8.966;2023-02-18T16:15:26;13.90;99.90
23089;DHT22;11713;48.506;8.966;2023-02-18T16:17:53;13.80;99.90
23089;DHT22;11713;48.506;8.966;2023-02-18T16:20:37;13.70;99.90
23089;DHT22;11713;48.506;8.966;2023-02-18T16:23:10;13.60;99.90
23089;DHT22;11713;48.506;8.966;2023-02-18T16:25:43;13.50;99.90
23089;DHT22;11713;48.506;8.966;2023-02-18T16:28:30;13.40;99.90
23089;DHT22;11713;48.506;8.966;2023-02-18T16:30:56;13.40;99.90
23089;DHT22;11713;48.506;8.966;2023-02-18T16:33:22;13.30;99.90
23089;DHT22;11713;48.506;8.966;2023-02-18T16:35:48;13.30;99.90
23089;DHT22;11713;48.506;8.966;2023-02-18T16:38:20;13.20;99.90
23089;DHT22;11713;48.506;8.966;2023-02-18T16:40:46;13.20;99.90
23089;DHT22;11713;48.506;8.966;2023-02-18T16:43:16;13.10;99.90
23089;DHT22;11713;48.506;8.966;2023-02-18T16:45:44;13.10;99.90
23089;DHT22;11713;48.506;8.966;2023-02-18T16:48:33;13.10;99.90
23089;DHT22;11713;48.506;8.966;2023-02-18T16:51:02;13.10;99.90
23089;DHT22;11713;48.506;8.966;2023-02-18T16:53:29;13.00;99.90
23089;DHT22;11713;48.506;8.966;2023-02-18T16:55:54;13.00;99.90
23089;DHT22;11713;48.506;8.966;2023-02-18T16:58:20;13.00;99.90
23089;DHT22;11713;48.506;8.966;2023-02-18T17:00:48;13.00;99.90
23089;DHT22;11713;48.506;8.966;2023-02-18T17:03:15;13.00;99.90
23089;DHT22;11713;48.506;8.966;2023-02-18T17:05:41;13.00;99.90
23089;DHT22;11713;48.506;8.966;2023-02-18T17:08:15;13.00;99.90
23089;DHT22;11713;48.506;8.966;2023-02-18T17:10:42;13.00;99.90
23089;DHT22;11713;48.506;8.966;2023-02-18T17:13:19;13.00;99.90
23089;DHT22;11713;48.506;8.966;2023-02-18T17:15:46;13.00;99.90
23089;DHT22;11713;48.506;8.966;2023-02-18T17:18:14;13.00;99.90
23089;DHT22;11713;48.506;8.966;2023-02-18T17:20:40;12.90;99.90
23089;DHT22;11713;48.506;8.966;2023-02-18T17:23:08;12.90;99.90
23089;DHT22;11713;48.506;8.966;2023-02-18T17:25:38;12.90;99.90
23089;DHT22;11713;48.506;8.966;2023-02-18T17:28:05;12.90;99.90
23089;DHT22;11713;48.506;8.966;2023-02-18T17:30:34;12.90;99.90
23089;DHT22;11713;48.506;8.966;2023-02-18T17:33:01;12.80;99.90
23089;DHT22;11713;48.506;8.966;2023-02-18T17:35:29;12.80;99.90
23089;DHT22;11713;48.506;8.966;2023-02-18T17:37:55;12.80;99.90
23089;DHT22;11713;48.506;8.966;2023-02-18T17:40:25;12.80;99.90
23089;DHT22;11713;48.506;8.966;2023-02-18T17:42:56;12.70;99.90
23089;DHT22;11713;48.506;8.966;2023-02-18T17:45:39;12.70;99.90
23089;DHT22;11713;48.506;8.966;2023-02-18T17:48:08;12.70;99.90
23089;DHT22;11713;48.506;8.966;2023-02-18T17:50:36;12.70;99.90
23089;DHT22;11713;48.506;8.966;2023-02-18T17:53:02;12.70;99.90
23089;DHT22;11713;48.506;8.966;2023-02-18T17:55:31;12.70;99.90
23089;DHT22;11713;48.506;8.966;2023-02-18T17:58:00;12.60;99.90
23089;DHT22;11713;48.506;8.966;2023-02-18T18:00:30;12.60;99.90
23089;DHT22;11713;48.506;8.966;2023-02-18T18:02:58;12.60;99.90
23089;DHT22;11713;48.506;8.966;2023-02-18T18:05:29;12.60;99.90
23089;DHT22;11713;48.506;8.966;2023-02-18T18:07:58;12.60;99.90
23089;DHT22;11713;48.506;8.966;2023-02-18T18:10:26;12.50;99.90
23089;DHT22;11713;48.506;8.966;2023-02-18T18:13:00;12.50;99.90
23089;DHT22;11713;48.506;8.966;2023-02-18T18:17:55;12.50;99.90
23089;DHT22;11713;48.506;8.966;2023-02-18T18:20:24;12.50;99.90
23089;DHT22;11713;48.506;8.966;2023-02-18T18:22:51;12.50;99.90
23089;DHT22;11713;48.506;8.966;2023-02-18T18:27:49;12.50;99.90
23089;DHT22;11713;48.506;8.966;2023-02-18T18:30:24;12.40;99.90
23089;DHT22;11713;48.506;8.966;2023-02-18T18:32:50;12.40;99.90
23089;DHT22;11713;48.506;8.966;2023-02-18T18:35:27;12.40;99.90
23089;DHT22;11713;48.506;8.966;2023-02-18T18:37:53;12.40;99.90
23089;DHT22;11713;48.506;8.966;2023-02-18T18:40:21;12.40;99.90
23089;DHT22;11713;48.506;8.966;2023-02-18T18:42:47;12.30;99.90
23089;DHT22;11713;48.506;8.966;2023-02-18T18:47:46;12.40;99.90
23089;DHT22;11713;48.506;8.966;2023-02-18T18:50:12;12.40;99.90
23089;DHT22;11713;48.506;8.966;2023-02-18T18:52:39;12.30;99.90
23089;DHT22;11713;48.506;8.966;2023-02-18T18:57:44;12.30;99.90
23089;DHT22;11713;48.506;8.966;2023-02-18T19:00:12;12.30;99.90
23089;DHT22;11713;48.506;8.966;2023-02-18T19:02:40;12.20;99.90